Date,TemperatureHighF,TemperatureAvgF,TemperatureLowF,DewpointHighF,DewpointAvgF,DewpointLowF,HumidityHigh,HumidityAvg,HumidityLow,PressureMaxIn,PressureMinIn,WindSpeedMaxMPH,WindSpeedAvgMPH,GustSpeedMaxMPH,PrecipitationSumIn
2013-10-1,79.1,57.7,42.9,58.9,51.3,42.1,100,83,43,29.94,29.81,6,0,10,0.00
2013-10-2,80.8,63.6,49.9,63.4,57.2,49.1,100,82,51,29.92,29.79,12,0,12,0.00
2013-10-3,77.9,61.0,49.1,58.3,52.8,47.9,99,78,39,30.06,29.92,6,0,6,0.00
2013-10-4,63.4,56.4,48.4,60.1,54.5,47.3,99,94,85,30.06,30.01,3,0,4,0.04
2013-10-5,69.2,61.3,56.4,61.1,58.1,55.8,100,90,72,30.10,30.02,3,0,4,0.01
2013-10-6,59.3,56.1,54.0,57.7,55.6,53.3,100,98,93,30.20,30.08,2,0,3,0.43
2013-10-7,75.9,64.6,56.3,72.1,62.7,56.0,100,94,81,30.10,29.77,17,1,21,0.04
2013-10-8,66.7,55.3,43.4,56.4,47.1,41.0,95,76,42,30.35,29.87,15,0,15,0.00
2013-10-9,61.6,47.9,37.0,49.8,43.5,36.0,99,86,60,30.45,30.34,4,0,5,0.00
2013-10-10,62.8,49.9,38.2,55.6,47.2,37.4,100,91,71,30.34,30.15,3,0,4,0.01
2013-10-11,69.2,54.5,44.3,57.1,48.0,39.4,99,81,38,30.15,30.06,5,0,5,0.00
2013-10-12,59.5,52.3,43.2,57.0,50.5,42.1,100,94,85,30.37,30.12,3,0,5,0.00
2013-10-13,59.6,50.2,38.6,52.3,46.9,37.6,100,89,70,30.42,30.35,4,0,4,0.00
2013-10-14,65.2,47.3,32.4,50.1,41.2,31.6,100,82,45,30.38,30.22,5,0,5,0.00
2013-10-15,66.5,55.2,47.1,57.5,51.2,46.0,98,87,67,30.24,30.15,3,0,3,0.00
2013-10-16,62.2,54.3,47.1,55.5,52.1,46.1,99,93,75,30.15,29.88,3,0,3,0.00
2013-10-17,74.4,60.0,50.0,61.7,55.8,49.5,100,88,57,29.89,29.69,10,0,10,0.01
2013-10-18,66.5,59.1,44.8,60.8,51.9,42.0,99,79,49,29.88,29.58,16,0,16,0.03
2013-10-19,66.7,52.2,39.0,49.0,43.8,37.9,99,76,43,29.94,29.71,5,0,11,0.00
2013-10-20,61.4,51.8,38.8,50.5,41.5,34.2,98,71,37,29.99,29.66,20,1,20,0.00
2013-10-21,66.8,49.2,34.2,44.6,40.0,33.1,99,74,41,30.09,29.96,11,0,13,0.00
2013-10-22,65.8,52.4,40.3,53.9,45.8,38.5,99,80,58,29.96,29.67,13,0,13,0.00
2013-10-23,52.0,43.8,34.9,39.8,36.6,33.2,97,77,51,29.77,29.56,4,0,4,0.00
2013-10-24,53.3,44.1,34.8,37.5,31.8,26.1,91,64,39,29.86,29.61,19,1,19,0.00
2013-10-25,49.5,39.3,29.9,36.0,29.9,27.0,97,71,45,30.13,29.86,15,0,15,0.00
2013-10-26,55.9,41.5,27.9,36.9,30.5,26.0,98,69,34,30.13,29.85,19,1,19,0.00
2013-10-27,55.9,46.4,37.2,40.7,36.1,30.2,96,69,43,30.03,29.77,13,1,16,0.02
2013-10-28,58.4,43.3,31.1,37.8,32.0,26.3,96,67,40,30.33,30.03,18,1,20,0.00
2013-10-29,47.8,34.9,24.9,30.6,25.1,19.8,93,70,34,30.43,30.32,6,0,7,0.00
2013-10-30,52.1,38.0,28.7,43.3,34.5,25.0,97,88,66,30.34,30.16,9,0,9,0.03
2013-10-31,59.7,45.5,29.9,58.5,44.4,29.0,99,96,87,30.22,29.75,11,0,14,0.22